createdAt,value
2018-10-18T00:02:42.272Z,99129.56
2018-10-18T00:05:47.233Z,99136.49
2018-10-18T00:08:53.779Z,99135.07
2018-10-18T00:12:00.567Z,99137.48
2018-10-18T00:15:08.918Z,99142.01
2018-10-18T00:18:15.994Z,99132.36
2018-10-18T00:21:20.988Z,99136.99
2018-10-18T00:24:26.011Z,99137.13
2018-10-18T00:27:32.730Z,99146.86
2018-10-18T00:30:37.741Z,99143.52
2018-10-18T00:33:44.517Z,99141.98
2018-10-18T00:36:51.218Z,99139.42
2018-10-18T00:39:58.118Z,99144.05
2018-10-18T00:43:04.770Z,99132.25
2018-10-18T00:46:11.958Z,99133.78
2018-10-18T00:49:16.968Z,99129.16
2018-10-18T00:52:23.658Z,99128.66
2018-10-18T00:55:31.901Z,99134.54
2018-10-18T00:58:38.859Z,99133.16
2018-10-18T01:01:45.531Z,99137.00
2018-10-18T01:04:54.496Z,99140.96
2018-10-18T01:07:59.558Z,99140.31
2018-10-18T01:11:05.765Z,99140.21
2018-10-18T01:14:12.354Z,99138.64
2018-10-18T01:17:18.977Z,99139.82
2018-10-18T01:20:25.578Z,99139.43
2018-10-18T01:23:34.001Z,99133.52
2018-10-18T01:26:38.985Z,99130.59
2018-10-18T01:29:43.984Z,99134.55
2018-10-18T01:32:49.041Z,99136.86
2018-10-18T01:35:56.052Z,99137.64
2018-10-18T01:39:03.654Z,99140.21
2018-10-18T01:42:10.403Z,99140.46
2018-10-18T01:45:17.122Z,99139.93
2018-10-18T01:48:22.180Z,99140.71
2018-10-18T01:51:27.206Z,99133.27
2018-10-18T01:54:34.042Z,99129.92
2018-10-18T01:57:40.949Z,99131.20
2018-10-18T02:00:47.598Z,99124.05
2018-10-18T02:03:52.584Z,99127.37
2018-10-18T02:06:57.650Z,99124.80
2018-10-18T02:10:03.813Z,99132.09
2018-10-18T02:13:08.790Z,99133.28
2018-10-18T02:16:15.498Z,99130.32
2018-10-18T02:19:22.141Z,99135.31
2018-10-18T02:22:27.133Z,99136.84
2018-10-18T02:25:33.748Z,99136.84
2018-10-18T02:28:40.361Z,99138.37
2018-10-18T02:31:48.968Z,99133.78
2018-10-18T02:34:53.961Z,99133.00
2018-10-18T02:38:00.954Z,99130.82
2018-10-18T02:41:08.074Z,99130.29
2018-10-18T02:44:14.833Z,99124.27
2018-10-18T02:47:21.531Z,99127.09
2018-10-18T02:50:28.456Z,99124.77
2018-10-18T02:53:35.253Z,99126.59
2018-10-18T02:56:40.270Z,99122.49
2018-10-18T02:59:47.284Z,99126.34
2018-10-18T03:02:52.297Z,99125.80
2018-10-18T03:05:58.923Z,99120.68
2018-10-18T03:09:06.869Z,99120.18
2018-10-18T03:12:11.957Z,99113.48
2018-10-18T03:15:16.906Z,99117.86
2018-10-18T03:18:27.639Z,99116.58
2018-10-18T03:21:34.807Z,99117.86
2018-10-18T03:24:41.825Z,99125.02
2018-10-18T03:27:48.701Z,99128.61
2018-10-18T03:30:53.778Z,99125.52
2018-10-18T03:34:00.465Z,99129.75
2018-10-18T03:37:05.505Z,99130.64
2018-10-18T03:40:12.384Z,99128.86
2018-10-18T03:43:19.425Z,99132.45
2018-10-18T03:46:26.297Z,99135.51
2018-10-18T03:49:32.963Z,99126.39
2018-10-18T03:52:39.709Z,99137.53
2018-10-18T03:55:46.448Z,99133.19
2018-10-18T03:58:51.418Z,99138.70
2018-10-18T04:01:58.184Z,99134.71
2018-10-18T04:05:12.618Z,99139.19
2018-10-18T04:08:19.239Z,99139.30
2018-10-18T04:11:24.267Z,99139.19
2018-10-18T04:14:29.294Z,99144.41
2018-10-18T04:17:34.338Z,99148.75
2018-10-18T04:20:41.287Z,99146.47
2018-10-18T04:23:48.431Z,99141.05
2018-10-18T04:26:53.454Z,99136.45
2018-10-18T04:30:00.129Z,99142.71
2018-10-18T04:33:08.672Z,99144.09
2018-10-18T04:36:15.683Z,99144.32
2018-10-18T04:39:20.526Z,99144.47
2018-10-18T04:42:25.468Z,99149.18
2018-10-18T04:45:30.425Z,99145.58
2018-10-18T04:48:35.526Z,99153.75
2018-10-18T04:51:40.332Z,99150.69
2018-10-18T04:54:46.929Z,99158.34
2018-10-18T04:57:51.893Z,99168.94
2018-10-18T05:00:56.886Z,99169.59
2018-10-18T05:04:01.866Z,99169.59
2018-10-18T05:07:06.889Z,99172.02
2018-10-18T05:10:11.826Z,99170.59
2018-10-18T05:14:58.369Z,99173.28
2018-10-18T05:18:03.699Z,99178.40
2018-10-18T05:21:08.718Z,99178.70
2018-10-18T05:24:13.738Z,99171.77
2018-10-18T05:27:18.694Z,99176.38
2018-10-18T05:30:23.670Z,99177.92
2018-10-18T05:33:28.687Z,99185.59
2018-10-18T05:36:33.648Z,99188.98
2018-10-18T05:39:38.663Z,99193.19
2018-10-18T05:42:43.695Z,99203.66
2018-10-18T05:45:48.701Z,99206.95
2018-10-18T05:48:53.730Z,99210.38
2018-10-18T05:51:58.713Z,99215.25
2018-10-18T05:55:04.786Z,99218.47
2018-10-18T05:58:09.685Z,99224.13
2018-10-18T06:01:14.752Z,99226.30
2018-10-18T06:04:25.433Z,99230.79
2018-10-18T06:07:30.381Z,99239.50
2018-10-18T06:10:46.977Z,99237.57
2018-10-18T06:13:52.291Z,99248.02
2018-10-18T06:16:57.423Z,99248.53
2018-10-18T06:20:02.392Z,99253.32
2018-10-18T06:23:07.383Z,99252.16
2018-10-18T06:26:12.351Z,99263.67
2018-10-18T06:29:17.357Z,99265.76
2018-10-18T06:32:22.304Z,99264.92
2018-10-18T06:35:27.246Z,99272.94
2018-10-18T06:38:32.214Z,99272.95
2018-10-18T06:41:38.148Z,99275.94
2018-10-18T06:44:43.120Z,99282.51
2018-10-18T06:47:48.251Z,99284.59
2018-10-18T06:50:53.096Z,99282.44
2018-10-18T06:53:58.402Z,99284.01
2018-10-18T06:57:04.927Z,99282.50
2018-10-18T07:00:12.412Z,99282.80
2018-10-18T07:03:17.393Z,99288.35
2018-10-18T07:06:22.440Z,99287.64
2018-10-18T07:09:46.439Z,99285.51
2018-10-18T07:12:51.411Z,99289.27
2018-10-18T07:15:56.546Z,99290.22
2018-10-18T07:19:01.548Z,99293.58
2018-10-18T07:22:07.078Z,99294.77
2018-10-18T07:25:13.579Z,99294.27
2018-10-18T07:28:18.578Z,99293.13
2018-10-18T07:31:23.543Z,99297.53
2018-10-18T07:34:28.571Z,99287.50
2018-10-18T07:37:33.549Z,99293.95
2018-10-18T07:40:38.552Z,99295.46
2018-10-18T07:43:43.537Z,99291.35
2018-10-18T07:47:00.568Z,99292.21
2018-10-18T07:50:05.969Z,99300.23
2018-10-18T07:53:19.429Z,99300.25
2018-10-18T07:56:24.387Z,99300.83
2018-10-18T07:59:37.541Z,99303.86
2018-10-18T08:02:43.397Z,99307.37
2018-10-18T08:05:48.561Z,99298.46
2018-10-18T08:08:54.141Z,99301.70
2018-10-18T08:11:59.806Z,99306.43
2018-10-18T08:15:06.213Z,99297.77
2018-10-18T08:18:18.155Z,99301.03
2018-10-18T08:21:23.144Z,99300.63
2018-10-18T08:24:28.085Z,99302.21
2018-10-18T08:27:33.512Z,99301.03
2018-10-18T08:30:38.482Z,99299.63
2018-10-18T08:33:43.430Z,99299.84
2018-10-18T08:36:48.465Z,99295.37
2018-10-18T08:39:53.991Z,99299.36
2018-10-18T08:42:58.975Z,99297.42
2018-10-18T08:46:04.130Z,99299.42
2018-10-18T08:49:09.120Z,99298.16
2018-10-18T08:52:14.073Z,99298.54
2018-10-18T08:55:19.141Z,99300.52
2018-10-18T08:58:24.172Z,99301.97
2018-10-18T09:01:29.146Z,99298.17
2018-10-18T09:04:34.111Z,99304.67
2018-10-18T09:07:39.075Z,99304.32
2018-10-18T09:10:44.092Z,99300.52
2018-10-18T09:13:49.094Z,99303.14
2018-10-18T09:16:56.171Z,99299.80
2018-10-18T09:20:01.139Z,99301.25
2018-10-18T09:23:06.159Z,99300.40
2018-10-18T09:29:42.199Z,99305.52
2018-10-18T09:32:48.260Z,99299.87
2018-10-18T09:35:53.258Z,99289.89
2018-10-18T09:38:58.234Z,99286.83
2018-10-18T09:42:03.253Z,99285.88
2018-10-18T09:45:09.949Z,99287.17
2018-10-18T09:48:15.078Z,99283.28
2018-10-18T09:51:26.739Z,99277.56
2018-10-18T09:54:31.744Z,99285.97
2018-10-18T09:57:36.737Z,99273.10
2018-10-18T10:00:47.619Z,99273.73
2018-10-18T10:03:52.609Z,99269.19
2018-10-18T10:06:57.651Z,99271.55
2018-10-18T10:10:02.665Z,99271.61
2018-10-18T10:13:08.075Z,99271.29
2018-10-18T10:16:13.626Z,99266.70
2018-10-18T10:19:18.722Z,99265.48
2018-10-18T10:22:23.658Z,99265.75
2018-10-18T10:25:28.656Z,99260.88
2018-10-18T10:28:33.661Z,99264.69
2018-10-18T10:31:38.647Z,99261.66
2018-10-18T10:34:43.687Z,99263.16
2018-10-18T10:41:20.189Z,99252.86
2018-10-18T10:44:25.201Z,99248.86
2018-10-18T10:47:30.235Z,99248.19
2018-10-18T10:50:35.335Z,99247.05
2018-10-18T10:53:40.465Z,99247.66
2018-10-18T10:56:47.504Z,99244.75
2018-10-18T10:59:52.588Z,99243.57
2018-10-18T11:02:57.592Z,99234.67
2018-10-18T11:06:02.624Z,99235.50
2018-10-18T11:09:08.966Z,99231.10
2018-10-18T11:12:14.030Z,99234.84
2018-10-18T11:15:19.136Z,99231.91
2018-10-18T11:18:24.082Z,99229.50
2018-10-18T11:21:29.115Z,99225.91
2018-10-18T11:24:34.161Z,99224.19
2018-10-18T11:34:40.774Z,99218.55
2018-10-18T11:37:45.791Z,99214.30
2018-10-18T11:40:50.802Z,99211.96
2018-10-18T11:43:55.785Z,99211.22
2018-10-18T11:47:00.794Z,99202.67
2018-10-18T11:50:05.847Z,99210.09
2018-10-18T11:53:10.884Z,99200.66
2018-10-18T11:56:15.960Z,99197.14
2018-10-18T11:59:20.900Z,99203.61
2018-10-18T12:02:25.945Z,99199.41
2018-10-18T12:05:30.902Z,99190.55
2018-10-18T12:08:35.929Z,99187.58
2018-10-18T12:14:57.458Z,99183.23
2018-10-18T12:18:02.454Z,99182.76
2018-10-18T12:21:13.308Z,99189.81
2018-10-18T12:24:18.720Z,99185.64
2018-10-18T12:27:23.725Z,99178.30
2018-10-18T12:30:28.697Z,99181.25
2018-10-18T12:33:33.682Z,99180.38
2018-10-18T12:36:38.642Z,99182.85
2018-10-18T12:39:43.745Z,99181.35
2018-10-18T12:42:49.304Z,99177.07
2018-10-18T12:45:54.261Z,99185.64
2018-10-18T12:48:59.254Z,99178.17
2018-10-18T12:52:04.734Z,99176.72
2018-10-18T12:55:09.737Z,99174.68
2018-10-18T12:58:14.725Z,99175.66
2018-10-18T13:01:19.736Z,99179.75
2018-10-18T13:04:24.742Z,99182.07
2018-10-18T13:11:00.554Z,99176.91
2018-10-18T13:14:05.774Z,99167.60
2018-10-18T13:17:10.780Z,99181.64
2018-10-18T13:20:15.883Z,99167.23
2018-10-18T13:23:20.814Z,99169.12
2018-10-18T13:26:25.821Z,99167.45
2018-10-18T13:29:30.829Z,99160.41
2018-10-18T13:32:35.865Z,99171.53
2018-10-18T13:35:40.881Z,99165.88
2018-10-18T13:38:45.879Z,99174.09
2018-10-18T13:41:50.887Z,99171.16
2018-10-18T13:44:57.626Z,99162.73
2018-10-18T13:48:04.587Z,99164.19
2018-10-18T13:51:09.722Z,99166.90
2018-10-18T13:54:19.080Z,99178.48
2018-10-18T13:57:26.227Z,99168.08
2018-10-18T14:00:33.439Z,99166.25
2018-10-18T14:03:40.182Z,99167.78
2018-10-18T14:06:47.870Z,99177.97
2018-10-18T14:09:52.857Z,99191.92
2018-10-18T14:12:59.618Z,99188.45
2018-10-18T14:16:06.150Z,99186.77
2018-10-18T14:19:13.890Z,99181.98
2018-10-18T14:22:20.962Z,99188.14
2018-10-18T14:25:27.905Z,99185.30
2018-10-18T14:28:38.169Z,99183.30
2018-10-18T14:31:45.110Z,99191.73
2018-10-18T14:34:51.737Z,99192.66
2018-10-18T14:37:58.994Z,99196.90
2018-10-18T14:41:07.816Z,99189.66
2018-10-18T14:44:16.035Z,99191.44
2018-10-18T14:47:23.198Z,99189.17
2018-10-18T14:50:28.159Z,99196.04
2018-10-18T14:53:37.184Z,99199.63
2018-10-18T14:56:46.132Z,99199.96
2018-10-18T14:59:55.657Z,99201.16
2018-10-18T15:03:01.785Z,99210.34
2018-10-18T15:06:08.550Z,99212.16
2018-10-18T15:09:15.317Z,99212.83
2018-10-18T15:12:22.477Z,99210.96
2018-10-18T15:15:29.348Z,99208.37
2018-10-18T15:18:34.393Z,99214.22
2018-10-18T15:21:39.507Z,99219.20
2018-10-18T15:24:44.548Z,99212.74
2018-10-18T15:27:51.794Z,99207.82
2018-10-18T15:30:58.540Z,99208.16
2018-10-18T15:34:06.032Z,99210.70
2018-10-18T15:37:11.106Z,99214.83
2018-10-18T15:40:16.166Z,99207.82
2018-10-18T15:43:25.273Z,99210.39
2018-10-18T15:46:30.557Z,99215.62
2018-10-18T15:49:35.559Z,99215.16
2018-10-18T15:52:40.638Z,99219.49
2018-10-18T15:55:45.673Z,99222.75
2018-10-18T15:58:52.453Z,99236.03
2018-10-18T16:01:59.030Z,99235.41
2018-10-18T16:05:07.314Z,99234.37
2018-10-18T16:08:14.402Z,99238.34
2018-10-18T16:11:33.955Z,99240.80
2018-10-18T16:14:39.011Z,99257.11
2018-10-18T16:17:48.720Z,99253.41
2018-10-18T16:20:57.221Z,99257.12
2018-10-18T16:24:04.367Z,99266.27
2018-10-18T16:27:11.270Z,99264.52
2018-10-18T16:30:19.462Z,99266.42
2018-10-18T16:33:26.637Z,99273.48
2018-10-18T16:36:35.828Z,99276.69
2018-10-18T16:42:43.950Z,99287.42
2018-10-18T16:45:50.631Z,99296.97
2018-10-18T16:48:57.393Z,99299.62
2018-10-18T16:52:03.764Z,99302.51
2018-10-18T16:55:10.530Z,99305.23
2018-10-18T16:58:17.300Z,99311.34
2018-10-18T17:01:25.769Z,99299.44
2018-10-18T17:04:32.963Z,99304.59
2018-10-18T17:07:42.009Z,99305.42
2018-10-18T17:10:47.148Z,99309.11
2018-10-18T17:13:54.564Z,99309.88
2018-10-18T17:17:01.878Z,99313.76
2018-10-18T17:20:08.848Z,99313.97
2018-10-18T17:23:15.624Z,99319.70
2018-10-18T17:26:23.347Z,99321.38
2018-10-18T17:29:33.477Z,99325.44
2018-10-18T17:32:42.567Z,99324.81
2018-10-18T17:35:49.342Z,99324.71
2018-10-18T17:38:56.358Z,99332.66
2018-10-18T17:42:03.234Z,99331.34
2018-10-18T17:45:11.425Z,99330.30
2018-10-18T17:48:18.653Z,99334.55
2018-10-18T17:51:25.325Z,99335.71
2018-10-18T17:54:32.315Z,99341.52
2018-10-18T17:57:37.813Z,99340.59
2018-10-18T18:00:48.663Z,99345.86
2018-10-18T18:03:53.687Z,99347.78
2018-10-18T18:06:58.797Z,99350.59
2018-10-18T18:10:07.580Z,99347.75
2018-10-18T18:13:13.201Z,99346.92
2018-10-18T18:16:18.163Z,99351.02
2018-10-18T18:19:27.064Z,99345.70
2018-10-18T18:22:34.036Z,99356.88
2018-10-18T18:25:48.469Z,99353.03
2018-10-18T18:28:56.214Z,99355.95
2018-10-18T18:32:01.265Z,99362.58
2018-10-18T18:35:08.482Z,99364.59
2018-10-18T18:38:17.087Z,99367.19
2018-10-18T18:41:24.325Z,99368.03
2018-10-18T18:44:31.833Z,99372.17
2018-10-18T18:47:37.930Z,99378.31
2018-10-18T18:50:46.486Z,99377.97
2018-10-18T18:53:53.800Z,99373.00
2018-10-18T18:57:00.872Z,99385.75
2018-10-18T19:00:15.376Z,99386.73
2018-10-18T19:03:20.852Z,99387.97
2018-10-18T19:06:28.057Z,99397.39
2018-10-18T19:09:45.631Z,99394.98
2018-10-18T19:12:52.799Z,99399.91
2018-10-18T19:15:59.450Z,99400.73
2018-10-18T19:19:12.979Z,99399.84
2018-10-18T19:22:18.381Z,99401.81
2018-10-18T19:25:27.373Z,99404.16
2018-10-18T19:28:32.466Z,99401.98
2018-10-18T19:31:39.552Z,99408.30
2018-10-18T19:34:47.721Z,99411.67
2018-10-18T19:37:55.234Z,99414.41
2018-10-18T19:41:00.210Z,99411.96
2018-10-18T19:44:07.294Z,99417.36
2018-10-18T19:47:12.314Z,99415.06
2018-10-18T19:50:18.956Z,99423.34
2018-10-18T19:53:24.178Z,99422.05
2018-10-18T19:56:31.536Z,99422.84
2018-10-18T19:59:38.751Z,99429.13
2018-10-18T20:02:56.307Z,99429.00
2018-10-18T20:06:01.405Z,99434.66
2018-10-18T20:13:07.384Z,99436.50
2018-10-18T20:16:14.936Z,99441.11
2018-10-18T20:19:20.358Z,99440.07
2018-10-18T20:22:27.626Z,99446.50
2018-10-18T20:25:36.049Z,99448.96
2018-10-18T20:28:42.753Z,99450.74
2018-10-18T20:31:48.240Z,99450.09
2018-10-18T20:34:53.502Z,99442.40
2018-10-18T20:38:05.172Z,99446.26
2018-10-18T20:41:10.418Z,99450.86
2018-10-18T20:44:15.399Z,99453.42
2018-10-18T20:47:20.573Z,99456.25
2018-10-18T20:50:25.518Z,99462.42
2018-10-18T20:53:34.962Z,99464.09
2018-10-18T20:56:39.978Z,99462.17
2018-10-18T20:59:44.970Z,99461.13
2018-10-18T21:02:50.040Z,99462.03
2018-10-18T21:05:55.275Z,99457.39
2018-10-18T21:09:02.563Z,99461.49
2018-10-18T21:15:04.169Z,99461.58
2018-10-18T21:18:09.140Z,99457.09
2018-10-18T21:21:14.251Z,99454.27
2018-10-18T21:24:19.191Z,99451.31
2018-10-18T21:27:25.933Z,99453.88
2018-10-18T21:30:30.954Z,99446.67
2018-10-18T21:33:35.965Z,99439.61
2018-10-18T21:36:42.859Z,99447.20
2018-10-18T21:39:47.870Z,99447.95
2018-10-18T21:42:54.553Z,99444.59
2018-10-18T21:45:59.686Z,99450.50
2018-10-18T21:49:04.711Z,99449.72
2018-10-18T21:52:09.763Z,99454.02
2018-10-18T21:55:14.780Z,99454.02
2018-10-18T21:58:19.865Z,99447.84
2018-10-18T22:01:24.908Z,99454.80
2018-10-18T22:04:29.966Z,99456.56
2018-10-18T22:07:35.027Z,99455.66
2018-10-18T22:10:42.175Z,99453.83
2018-10-18T22:13:48.577Z,99459.05
2018-10-18T22:16:55.518Z,99453.92
2018-10-18T22:20:00.500Z,99456.64
2018-10-18T22:23:07.494Z,99447.01
2018-10-18T22:26:14.019Z,99449.83
2018-10-18T22:29:22.630Z,99445.23
2018-10-18T22:32:29.767Z,99447.81
2018-10-18T22:35:34.799Z,99443.72
2018-10-18T22:38:39.855Z,99440.03
2018-10-18T22:41:46.865Z,99438.88
2018-10-18T22:44:54.011Z,99441.80
2018-10-18T22:48:00.964Z,99446.72
2018-10-18T22:51:07.671Z,99440.11
2018-10-18T22:54:14.155Z,99440.79
2018-10-18T22:57:21.294Z,99437.44
2018-10-18T23:00:26.312Z,99436.70
2018-10-18T23:03:35.259Z,99437.20
2018-10-18T23:06:41.968Z,99432.20
2018-10-18T23:09:46.994Z,99438.02
2018-10-18T23:12:53.741Z,99427.99
2018-10-18T23:16:00.671Z,99430.81
2018-10-18T23:19:08.399Z,99427.23
2018-10-18T23:22:13.433Z,99426.20
2018-10-18T23:25:22.502Z,99424.91
2018-10-18T23:28:29.282Z,99425.16
2018-10-18T23:31:34.322Z,99427.76
2018-10-18T23:34:41.324Z,99431.61
2018-10-18T23:37:46.317Z,99433.93
2018-10-18T23:40:55.693Z,99431.47
2018-10-18T23:44:02.358Z,99433.78
2018-10-18T23:47:07.470Z,99436.48
2018-10-18T23:50:14.328Z,99437.51
2018-10-18T23:53:22.970Z,99435.18
2018-10-18T23:56:29.385Z,99442.89
2018-10-18T23:59:36.040Z,99430.56
